createdAt,value
2022-12-26T00:01:46.014Z,45.20
2022-12-26T00:04:49.211Z,46.83
2022-12-26T00:07:02.924Z,44.53
2022-12-26T00:09:30.674Z,43.47
2022-12-26T00:11:58.751Z,46.03
2022-12-26T00:14:26.649Z,42.30
2022-12-26T00:16:54.296Z,41.67
2022-12-26T00:19:22.311Z,48.37
2022-12-26T00:21:50.230Z,49.20
2022-12-26T00:24:17.820Z,44.40
2022-12-26T00:26:45.717Z,46.60
2022-12-26T00:29:13.386Z,43.97
2022-12-26T00:31:41.251Z,45.63
2022-12-26T00:34:08.731Z,45.80
2022-12-26T00:36:36.328Z,45.27
2022-12-26T00:39:04.617Z,42.73
2022-12-26T00:41:32.990Z,47.93
2022-12-26T00:44:00.770Z,42.03
2022-12-26T00:46:28.607Z,36.27
2022-12-26T00:48:56.390Z,39.83
2022-12-26T00:51:23.835Z,41.07
2022-12-26T00:53:51.342Z,39.63
2022-12-26T00:56:18.836Z,39.07
2022-12-26T00:58:46.258Z,38.67
2022-12-26T01:01:16.094Z,40.53
2022-12-26T01:03:44.318Z,40.37
2022-12-26T01:06:11.744Z,44.47
2022-12-26T01:08:39.381Z,42.70
2022-12-26T01:11:08.254Z,46.87
2022-12-26T01:13:36.198Z,46.63
2022-12-26T01:16:03.982Z,43.47
2022-12-26T01:18:31.480Z,46.83
2022-12-26T01:20:59.657Z,46.90
2022-12-26T01:23:27.502Z,44.87
2022-12-26T01:26:15.882Z,45.67
2022-12-26T01:28:42.310Z,44.63
2022-12-26T01:31:10.137Z,43.57
2022-12-26T01:33:37.649Z,43.37
2022-12-26T01:36:05.306Z,43.67
2022-12-26T01:38:32.680Z,42.33
2022-12-26T01:41:20.852Z,39.00
2022-12-26T01:44:08.331Z,39.97
2022-12-26T01:46:55.630Z,39.23
2022-12-26T01:49:42.382Z,41.40
2022-12-26T01:52:12.396Z,42.40
2022-12-26T01:54:43.156Z,38.70
2022-12-26T01:57:14.539Z,41.03
2022-12-26T01:59:42.758Z,38.77
2022-12-26T02:02:10.528Z,39.80
2022-12-26T02:04:59.951Z,38.60
2022-12-26T02:07:27.728Z,37.97
2022-12-26T02:09:55.437Z,36.43
2022-12-26T02:12:34.489Z,37.30
2022-12-26T02:15:06.982Z,39.20
2022-12-26T02:17:34.403Z,37.20
2022-12-26T02:20:06.663Z,37.30
2022-12-26T02:22:53.935Z,41.37
2022-12-26T02:25:28.401Z,37.37
2022-12-26T02:28:15.738Z,40.58
2022-12-26T02:31:03.029Z,39.43
2022-12-26T02:33:50.421Z,40.03
2022-12-26T02:36:37.667Z,38.27
2022-12-26T02:39:44.486Z,39.97
2022-12-26T02:42:32.120Z,39.27
2022-12-26T02:45:23.015Z,41.87
2022-12-26T02:48:10.323Z,37.30
2022-12-26T02:51:18.003Z,38.87
2022-12-26T02:54:25.091Z,34.83
2022-12-26T02:57:13.868Z,32.23
2022-12-26T03:00:20.935Z,31.13
2022-12-26T03:03:28.120Z,31.17
2022-12-26T03:06:18.052Z,30.73
2022-12-26T03:09:25.187Z,32.47
2022-12-26T03:12:15.417Z,31.67
2022-12-26T03:14:48.161Z,31.37
2022-12-26T03:17:20.269Z,31.47
2022-12-26T03:20:07.385Z,30.47
2022-12-26T03:22:39.238Z,30.70
2022-12-26T03:25:28.237Z,31.20
2022-12-26T03:27:55.816Z,31.77
2022-12-26T03:30:43.142Z,32.70
2022-12-26T03:33:30.525Z,34.27
2022-12-26T03:35:58.808Z,34.77
2022-12-26T03:38:31.592Z,34.90
2022-12-26T03:41:26.923Z,38.67
2022-12-26T03:44:34.027Z,38.30
2022-12-26T03:47:34.868Z,35.43
2022-12-26T03:50:25.578Z,33.77
2022-12-26T03:53:19.550Z,37.03
2022-12-26T03:56:26.654Z,36.33
2022-12-26T03:59:33.755Z,39.40
2022-12-26T04:02:24.461Z,36.40
2022-12-26T04:05:14.673Z,40.17
2022-12-26T04:08:04.661Z,37.33
2022-12-26T04:10:56.841Z,35.17
2022-12-26T04:13:48.459Z,34.13
2022-12-26T04:16:40.661Z,34.70
2022-12-26T04:19:27.944Z,36.30
2022-12-26T04:22:35.093Z,35.03
2022-12-26T04:25:49.055Z,34.43
2022-12-26T04:28:34.826Z,32.77
2022-12-26T04:31:27.408Z,32.93
2022-12-26T04:34:19.422Z,32.70
2022-12-26T04:37:10.382Z,33.17
2022-12-26T04:39:59.202Z,30.33
2022-12-26T04:42:48.098Z,30.00
2022-12-26T04:45:16.007Z,27.67
2022-12-26T04:48:03.303Z,26.10
2022-12-26T04:50:30.679Z,27.70
2022-12-26T04:52:59.117Z,24.70
2022-12-26T04:55:27.464Z,24.33
2022-12-26T04:57:54.983Z,22.90
2022-12-26T05:00:25.056Z,22.27
2022-12-26T05:03:18.734Z,21.13
2022-12-26T05:06:08.162Z,20.73
2022-12-26T05:08:57.609Z,19.87
2022-12-26T05:11:25.218Z,18.93
2022-12-26T05:13:54.177Z,21.57
2022-12-26T05:16:41.753Z,19.90
2022-12-26T05:19:31.809Z,20.77
2022-12-26T05:22:19.521Z,19.83
2022-12-26T05:25:06.803Z,22.10
2022-12-26T05:27:57.834Z,20.47
2022-12-26T05:30:25.781Z,21.63
2022-12-26T05:33:13.149Z,21.97
2022-12-26T05:35:41.016Z,23.33
2022-12-26T05:38:10.527Z,22.73
2022-12-26T05:40:37.993Z,21.93
2022-12-26T05:43:05.474Z,20.93
2022-12-26T05:45:32.878Z,19.83
2022-12-26T05:48:01.120Z,18.03
2022-12-26T05:50:28.760Z,16.67
2022-12-26T05:52:58.147Z,16.97
2022-12-26T05:55:25.883Z,14.97
2022-12-26T05:57:53.234Z,14.23
2022-12-26T06:00:20.706Z,14.13
2022-12-26T06:02:48.449Z,13.87
2022-12-26T06:05:15.999Z,12.53
2022-12-26T06:07:43.422Z,12.43
2022-12-26T06:10:11.379Z,13.10
2022-12-26T06:12:39.663Z,11.73
2022-12-26T06:15:07.493Z,11.47
2022-12-26T06:17:34.983Z,12.20
2022-12-26T06:20:02.446Z,12.10
2022-12-26T06:22:30.542Z,12.50
2022-12-26T06:24:57.904Z,13.67
2022-12-26T06:27:25.325Z,14.97
2022-12-26T06:29:52.736Z,15.00
2022-12-26T06:32:20.175Z,13.53
2022-12-26T06:34:48.449Z,13.77
2022-12-26T06:37:15.816Z,13.90
2022-12-26T06:39:43.216Z,13.10
2022-12-26T06:42:10.663Z,12.83
2022-12-26T06:44:38.632Z,11.60
2022-12-26T06:47:06.221Z,11.53
2022-12-26T06:49:33.656Z,11.53
2022-12-26T06:52:01.218Z,11.67
2022-12-26T06:54:30.118Z,11.83
2022-12-26T06:56:57.659Z,12.17
2022-12-26T06:59:25.123Z,12.40
2022-12-26T07:01:52.710Z,11.63
2022-12-26T07:04:20.220Z,10.83
2022-12-26T07:06:47.567Z,11.63
2022-12-26T07:09:17.107Z,11.53
2022-12-26T07:11:45.818Z,11.27
2022-12-26T07:14:13.397Z,11.30
2022-12-26T07:16:41.566Z,10.23
2022-12-26T07:19:10.623Z,9.33
2022-12-26T07:21:41.020Z,8.53
2022-12-26T07:24:14.600Z,9.73
2022-12-26T07:26:42.064Z,8.93
2022-12-26T07:29:11.061Z,9.20
2022-12-26T07:31:38.865Z,9.67
2022-12-26T07:34:06.393Z,9.10
2022-12-26T07:36:34.022Z,8.67
2022-12-26T07:39:01.573Z,8.87
2022-12-26T07:41:49.778Z,8.00
2022-12-26T07:44:17.285Z,8.70
2022-12-26T07:46:46.905Z,8.47
2022-12-26T07:49:14.509Z,7.87
2022-12-26T07:51:42.372Z,9.17
2022-12-26T07:54:11.533Z,8.70
2022-12-26T07:56:39.362Z,8.57
2022-12-26T07:59:07.058Z,8.27
2022-12-26T08:01:34.671Z,8.13
2022-12-26T08:04:02.417Z,9.03
2022-12-26T08:06:30.052Z,9.10
2022-12-26T08:08:57.424Z,9.33
2022-12-26T08:11:25.157Z,8.73
2022-12-26T08:13:53.266Z,8.50
2022-12-26T08:16:20.962Z,8.30
2022-12-26T08:18:48.454Z,9.17
2022-12-26T08:21:16.140Z,7.93
2022-12-26T08:23:43.581Z,7.17
2022-12-26T08:26:12.421Z,7.60
2022-12-26T08:28:40.065Z,8.10
2022-12-26T08:31:08.049Z,7.80
2022-12-26T08:33:35.968Z,8.00
2022-12-26T08:36:05.028Z,8.33
2022-12-26T08:38:34.077Z,7.87
2022-12-26T08:41:01.936Z,7.87
2022-12-26T08:43:45.334Z,8.07
2022-12-26T08:46:17.942Z,8.17
2022-12-26T08:48:45.691Z,8.00
2022-12-26T08:51:16.122Z,8.33
2022-12-26T08:53:44.047Z,8.50
2022-12-26T08:56:13.726Z,9.70
2022-12-26T08:58:41.420Z,9.60
2022-12-26T09:01:11.941Z,10.40
2022-12-26T09:03:39.991Z,11.70
2022-12-26T09:06:07.624Z,11.63
2022-12-26T09:08:35.697Z,11.03
2022-12-26T09:11:04.095Z,10.80
2022-12-26T09:13:31.842Z,11.53
2022-12-26T09:16:19.198Z,10.93
2022-12-26T09:18:47.295Z,11.43
2022-12-26T09:21:15.377Z,10.93
2022-12-26T09:23:43.639Z,10.77
2022-12-26T09:26:30.861Z,11.43
2022-12-26T09:28:58.943Z,12.17
2022-12-26T09:31:27.759Z,12.20
2022-12-26T09:33:55.274Z,11.40
2022-12-26T09:36:25.422Z,11.67
2022-12-26T09:38:53.233Z,11.93
2022-12-26T09:41:41.041Z,12.50
2022-12-26T09:44:14.306Z,12.70
2022-12-26T09:46:48.004Z,12.63
2022-12-26T09:49:35.372Z,13.20
2022-12-26T09:52:06.411Z,13.63
2022-12-26T09:54:37.676Z,14.57
2022-12-26T09:57:14.837Z,13.97
2022-12-26T09:59:46.844Z,14.97
2022-12-26T10:02:18.890Z,15.93
2022-12-26T10:04:46.608Z,17.80
2022-12-26T10:07:34.315Z,17.17
2022-12-26T10:10:21.764Z,17.13
2022-12-26T10:13:09.039Z,17.67
2022-12-26T10:15:40.971Z,17.23
2022-12-26T10:18:15.889Z,17.20
2022-12-26T10:20:53.161Z,18.00
2022-12-26T10:23:40.679Z,18.40
2022-12-26T10:26:27.881Z,17.60
2022-12-26T10:29:30.512Z,18.37
2022-12-26T10:32:00.535Z,18.00
2022-12-26T10:34:35.283Z,17.73
2022-12-26T10:37:06.535Z,17.15
2022-12-26T10:39:44.234Z,17.50
2022-12-26T10:42:18.991Z,17.77
2022-12-26T10:44:46.599Z,17.90
2022-12-26T10:47:33.906Z,17.83
2022-12-26T10:50:01.443Z,18.17
2022-12-26T10:52:32.389Z,17.73
2022-12-26T10:55:28.118Z,17.83
2022-12-26T10:57:49.587Z,15.63
2022-12-26T11:00:21.231Z,15.10
2022-12-26T11:03:08.649Z,14.80
2022-12-26T11:08:45.837Z,14.47
2022-12-26T11:11:15.336Z,14.70
2022-12-26T11:13:47.981Z,15.63
2022-12-26T11:16:24.354Z,15.97
2022-12-26T11:18:52.873Z,17.23
2022-12-26T11:21:40.465Z,16.90
2022-12-26T11:24:27.716Z,14.33
2022-12-26T11:27:14.944Z,14.33
2022-12-26T11:29:42.927Z,12.43
2022-12-26T11:32:16.877Z,13.27
2022-12-26T11:34:46.821Z,13.17
2022-12-26T11:37:32.999Z,12.97
2022-12-26T11:40:02.075Z,12.33
2022-12-26T11:42:29.932Z,14.20
2022-12-26T11:44:57.975Z,12.57
2022-12-26T11:47:28.316Z,12.40
2022-12-26T11:50:21.354Z,13.23
2022-12-26T11:53:10.342Z,10.97
2022-12-26T11:55:39.432Z,11.73
2022-12-26T11:58:27.920Z,9.70
2022-12-26T12:01:19.222Z,8.93
2022-12-26T12:03:50.046Z,8.53
2022-12-26T12:06:27.102Z,5.30
2022-12-26T12:09:14.522Z,6.40
2022-12-26T12:11:52.658Z,6.20
2022-12-26T12:14:39.991Z,4.97
2022-12-26T12:17:15.445Z,5.30
2022-12-26T12:22:32.081Z,2.63
2022-12-26T12:25:20.245Z,2.33
2022-12-26T12:28:08.890Z,2.10
2022-12-26T12:30:56.431Z,3.27
2022-12-26T12:33:46.628Z,2.80
2022-12-26T12:36:18.900Z,1.80
2022-12-26T12:39:07.983Z,3.50
2022-12-26T12:41:55.326Z,3.00
2022-12-26T12:44:28.213Z,2.73
2022-12-26T12:47:16.257Z,3.37
2022-12-26T12:50:03.432Z,3.47
2022-12-26T12:52:50.944Z,3.30
2022-12-26T12:55:38.741Z,3.63
2022-12-26T12:58:12.482Z,4.47
2022-12-26T13:00:50.058Z,4.30
2022-12-26T13:03:37.637Z,4.43
2022-12-26T13:06:31.430Z,4.43
2022-12-26T13:09:01.451Z,3.40
2022-12-26T13:11:31.211Z,3.43
2022-12-26T13:14:18.539Z,4.03
2022-12-26T13:16:56.749Z,5.37
2022-12-26T13:19:26.723Z,3.83
2022-12-26T13:21:56.849Z,3.20
2022-12-26T13:24:31.720Z,2.43
2022-12-26T13:27:19.066Z,1.92
2022-12-26T13:29:47.710Z,3.37
2022-12-26T13:32:35.621Z,2.70
2022-12-26T13:35:04.530Z,2.80
2022-12-26T13:37:51.774Z,2.50
2022-12-26T13:40:20.432Z,3.70
2022-12-26T13:43:10.342Z,3.20
2022-12-26T13:45:58.304Z,3.00
2022-12-26T13:48:45.913Z,2.83
2022-12-26T13:51:34.090Z,3.17
2022-12-26T13:54:04.749Z,3.30
2022-12-26T13:56:52.305Z,3.20
2022-12-26T13:59:26.961Z,3.93
2022-12-26T14:02:19.425Z,3.78
2022-12-26T14:05:07.164Z,2.47
2022-12-26T14:07:40.645Z,2.80
2022-12-26T14:10:14.021Z,2.43
2022-12-26T14:13:01.252Z,3.70
2022-12-26T14:15:48.589Z,3.40
2022-12-26T14:18:35.892Z,3.40
2022-12-26T14:21:23.180Z,4.70
2022-12-26T14:23:56.342Z,4.30
2022-12-26T14:26:36.442Z,3.90
2022-12-26T14:29:24.187Z,2.60
2022-12-26T14:31:59.405Z,3.50
2022-12-26T14:34:46.829Z,4.80
2022-12-26T14:37:34.549Z,2.20
2022-12-26T14:40:06.899Z,3.27
2022-12-26T14:43:10.568Z,3.50
2022-12-26T14:45:58.401Z,3.63
2022-12-26T14:48:45.785Z,2.60
2022-12-26T14:51:27.442Z,2.13
2022-12-26T14:54:14.772Z,2.27
2022-12-26T14:56:42.649Z,2.57
2022-12-26T14:59:30.787Z,2.30
2022-12-26T15:02:02.173Z,2.87
2022-12-26T15:04:43.732Z,2.43
2022-12-26T15:07:30.954Z,2.33
2022-12-26T15:10:19.407Z,2.37
2022-12-26T15:13:07.158Z,2.13
2022-12-26T15:15:54.906Z,2.40
2022-12-26T15:18:43.329Z,2.43
2022-12-26T15:21:24.943Z,2.90
2022-12-26T15:24:04.980Z,2.90
2022-12-26T15:26:52.470Z,2.80
2022-12-26T15:29:31.048Z,3.57
2022-12-26T15:32:18.594Z,3.10
2022-12-26T15:34:53.694Z,3.90
2022-12-26T15:37:41.004Z,3.60
2022-12-26T15:40:28.559Z,3.50
2022-12-26T15:43:19.118Z,4.00
2022-12-26T15:45:49.990Z,4.20
2022-12-26T15:48:37.714Z,5.53
2022-12-26T15:51:25.723Z,5.60
2022-12-26T15:54:13.029Z,6.13
2022-12-26T15:56:53.884Z,6.00
2022-12-26T15:59:41.610Z,5.70
2022-12-26T16:02:29.206Z,5.60
2022-12-26T16:05:12.659Z,6.47
2022-12-26T16:08:00.172Z,6.10
2022-12-26T16:10:52.582Z,6.70
2022-12-26T16:13:23.536Z,7.25
2022-12-26T16:15:53.063Z,7.03
2022-12-26T16:18:21.993Z,6.77
2022-12-26T16:21:11.329Z,7.30
2022-12-26T16:23:41.150Z,7.07
2022-12-26T16:26:09.300Z,6.33
2022-12-26T16:28:38.987Z,6.97
2022-12-26T16:31:06.942Z,6.97
2022-12-26T16:33:40.976Z,6.63
2022-12-26T16:36:09.246Z,6.50
2022-12-26T16:38:37.390Z,7.93
2022-12-26T16:41:23.997Z,7.43
2022-12-26T16:43:52.908Z,6.30
2022-12-26T16:46:23.468Z,6.20
2022-12-26T16:48:58.816Z,5.67
2022-12-26T16:51:47.844Z,6.73
2022-12-26T16:54:35.675Z,6.70
2022-12-26T16:57:07.741Z,6.87
2022-12-26T16:59:55.255Z,6.37
2022-12-26T17:02:26.562Z,5.73
2022-12-26T17:05:00.271Z,6.00
2022-12-26T17:07:28.651Z,5.87
2022-12-26T17:09:57.902Z,6.73
2022-12-26T17:12:29.631Z,4.47
2022-12-26T17:14:57.997Z,5.40
2022-12-26T17:17:46.477Z,4.73
2022-12-26T17:20:34.546Z,4.77
2022-12-26T17:23:21.866Z,5.20
2022-12-26T17:25:51.005Z,4.57
2022-12-26T17:28:38.455Z,5.00
2022-12-26T17:31:17.397Z,5.23
2022-12-26T17:33:48.050Z,5.70
2022-12-26T17:39:13.130Z,4.53
2022-12-26T17:41:50.491Z,4.30
2022-12-26T17:44:37.956Z,4.43
2022-12-26T17:47:25.738Z,2.83
2022-12-26T17:49:54.121Z,5.37
2022-12-26T17:52:25.029Z,5.73
2022-12-26T17:54:52.921Z,5.20
2022-12-26T17:57:22.291Z,5.60
2022-12-26T17:59:50.916Z,5.97
2022-12-26T18:02:18.685Z,6.63
2022-12-26T18:04:47.128Z,7.40
2022-12-26T18:07:18.048Z,6.87
2022-12-26T18:09:46.407Z,6.73
2022-12-26T18:12:15.258Z,8.47
2022-12-26T18:14:43.012Z,8.60
2022-12-26T18:17:13.919Z,7.97
2022-12-26T18:19:41.700Z,8.53
2022-12-26T18:22:12.844Z,8.30
2022-12-26T18:24:40.838Z,9.30
2022-12-26T18:27:08.887Z,7.80
2022-12-26T18:29:43.643Z,10.03
2022-12-26T18:32:19.235Z,9.75
2022-12-26T18:34:46.602Z,9.73
2022-12-26T18:37:13.930Z,9.63
2022-12-26T18:39:41.441Z,8.50
2022-12-26T18:42:13.265Z,8.67
2022-12-26T18:44:40.907Z,9.60
2022-12-26T18:47:10.855Z,10.33
2022-12-26T18:49:38.576Z,8.53
2022-12-26T18:52:06.564Z,9.63
2022-12-26T18:54:34.303Z,9.97
2022-12-26T18:57:02.191Z,9.80
2022-12-26T18:59:29.891Z,10.13
2022-12-26T19:01:58.117Z,9.73
2022-12-26T19:04:26.677Z,9.63
2022-12-26T19:06:54.464Z,9.27
2022-12-26T19:09:22.538Z,9.77
2022-12-26T19:11:50.709Z,8.93
2022-12-26T19:14:22.411Z,7.77
2022-12-26T19:16:50.046Z,9.47
2022-12-26T19:19:17.737Z,8.57
2022-12-26T19:21:46.010Z,8.90
2022-12-26T19:24:13.800Z,9.20
2022-12-26T19:26:41.553Z,10.30
2022-12-26T19:29:10.327Z,8.97
2022-12-26T19:31:38.445Z,8.63
2022-12-26T19:34:06.383Z,8.80
2022-12-26T19:36:34.051Z,9.10
2022-12-26T19:39:01.663Z,9.77
2022-12-26T19:41:30.006Z,8.73
2022-12-26T19:43:59.149Z,6.60
2022-12-26T19:46:26.983Z,9.27
2022-12-26T19:48:56.215Z,7.57
2022-12-26T19:51:24.116Z,7.73
2022-12-26T19:53:52.370Z,7.37
2022-12-26T19:56:21.476Z,7.40
2022-12-26T19:58:56.185Z,5.17
2022-12-26T20:03:56.998Z,5.50
2022-12-26T20:06:28.019Z,7.30
2022-12-26T20:08:58.259Z,7.13
2022-12-26T20:11:27.257Z,7.50
2022-12-26T20:13:55.614Z,6.03
2022-12-26T20:17:03.173Z,6.03
2022-12-26T20:19:13.851Z,6.50
2022-12-26T20:21:41.837Z,7.87
2022-12-26T20:24:12.061Z,8.60
2022-12-26T20:26:40.786Z,8.63
2022-12-26T20:29:09.605Z,9.40
2022-12-26T20:31:37.476Z,8.50
2022-12-26T20:34:05.802Z,8.93
2022-12-26T20:36:34.568Z,9.87
2022-12-26T20:39:03.618Z,9.73
2022-12-26T20:41:31.545Z,10.17
2022-12-26T20:43:59.241Z,10.93
2022-12-26T20:46:28.343Z,11.87
2022-12-26T20:48:56.950Z,11.97
2022-12-26T20:51:29.027Z,11.03
2022-12-26T20:54:00.927Z,8.97
2022-12-26T20:56:29.434Z,7.33
2022-12-26T20:58:59.718Z,6.23
2022-12-26T21:01:28.300Z,5.93
2022-12-26T21:04:00.223Z,6.90
2022-12-26T21:06:30.765Z,5.93
2022-12-26T21:08:59.029Z,4.53
2022-12-26T21:11:28.423Z,5.07
2022-12-26T21:14:00.073Z,5.00
2022-12-26T21:16:29.869Z,5.10
2022-12-26T21:18:58.040Z,5.73
2022-12-26T21:21:28.128Z,5.33
2022-12-26T21:23:57.315Z,4.47
2022-12-26T21:26:26.189Z,2.10
2022-12-26T21:29:02.695Z,2.13
2022-12-26T21:31:32.490Z,1.77
2022-12-26T21:34:01.826Z,3.20
2022-12-26T21:36:30.564Z,3.07
2022-12-26T21:38:58.937Z,1.90
2022-12-26T21:41:26.655Z,1.93
2022-12-26T21:43:55.829Z,2.00
2022-12-26T21:46:23.851Z,1.90
2022-12-26T21:48:54.941Z,4.33
2022-12-26T21:52:04.489Z,2.33
2022-12-26T21:54:55.523Z,1.50
2022-12-26T21:57:24.333Z,2.10
2022-12-26T22:00:00.661Z,2.50
2022-12-26T22:02:53.000Z,2.57
2022-12-26T22:05:21.946Z,1.93
2022-12-26T22:07:56.272Z,1.77
2022-12-26T22:10:45.331Z,1.80
2022-12-26T22:13:13.028Z,1.87
2022-12-26T22:16:02.580Z,1.70
2022-12-26T22:18:31.552Z,1.70
2022-12-26T22:21:19.114Z,1.80
2022-12-26T22:23:47.232Z,3.23
2022-12-26T22:26:16.330Z,1.43
2022-12-26T22:28:44.347Z,1.90
2022-12-26T22:31:20.880Z,2.03
2022-12-26T22:33:50.098Z,2.53
2022-12-26T22:36:17.891Z,1.73
2022-12-26T22:38:45.825Z,2.10
2022-12-26T22:41:14.543Z,2.00
2022-12-26T22:43:43.613Z,2.30
2022-12-26T22:46:11.202Z,2.17
2022-12-26T22:48:38.784Z,2.27
2022-12-26T22:51:06.467Z,1.60
2022-12-26T22:53:34.555Z,1.97
2022-12-26T22:56:04.808Z,2.33
2022-12-26T22:58:35.996Z,2.00
2022-12-26T23:01:04.544Z,2.70
2022-12-26T23:03:33.028Z,1.47
2022-12-26T23:06:00.946Z,1.60
2022-12-26T23:08:28.846Z,1.70
2022-12-26T23:10:58.471Z,2.30
2022-12-26T23:13:52.592Z,2.00
2022-12-26T23:16:39.956Z,2.30
2022-12-26T23:19:33.946Z,2.57
2022-12-26T23:22:02.630Z,3.37
2022-12-26T23:24:32.104Z,2.10
2022-12-26T23:27:21.171Z,2.27
2022-12-26T23:30:09.335Z,1.87
2022-12-26T23:32:37.524Z,1.93
2022-12-26T23:35:05.580Z,1.80
2022-12-26T23:37:33.205Z,1.90
2022-12-26T23:40:00.929Z,2.37
2022-12-26T23:42:28.585Z,2.07
2022-12-26T23:44:56.149Z,2.00
2022-12-26T23:47:23.751Z,2.27
2022-12-26T23:49:51.459Z,1.80
2022-12-26T23:52:19.171Z,2.33
2022-12-26T23:54:46.650Z,1.93
2022-12-26T23:57:14.466Z,2.03
2022-12-26T23:59:42.150Z,2.40
